createdAt,value
2023-01-17T00:01:34.227Z,2.22
2023-01-17T00:04:19.381Z,2.00
2023-01-17T00:07:04.532Z,2.30
2023-01-17T00:09:49.723Z,2.10
2023-01-17T00:12:16.236Z,2.25
2023-01-17T00:14:42.628Z,2.22
2023-01-17T00:17:09.030Z,2.30
2023-01-17T00:19:54.244Z,2.15
2023-01-17T00:22:44.806Z,1.98
2023-01-17T00:25:32.026Z,2.40
2023-01-17T00:27:58.506Z,2.70
2023-01-17T00:30:25.255Z,2.35
2023-01-17T00:32:51.670Z,2.20
2023-01-17T00:35:18.114Z,2.08
2023-01-17T00:37:44.471Z,1.90
2023-01-17T00:40:11.635Z,2.50
2023-01-17T00:42:37.982Z,2.10
2023-01-17T00:45:23.871Z,2.45
2023-01-17T00:48:08.959Z,2.33
2023-01-17T00:50:55.959Z,2.53
2023-01-17T00:53:40.907Z,2.20
2023-01-17T00:56:26.076Z,2.03
2023-01-17T00:59:12.988Z,2.97
2023-01-17T01:01:58.408Z,2.20
2023-01-17T01:04:43.730Z,2.35
2023-01-17T01:07:28.936Z,2.65
2023-01-17T01:10:14.027Z,2.53
2023-01-17T01:12:59.113Z,2.35
2023-01-17T01:15:44.012Z,2.72
2023-01-17T01:18:31.083Z,2.35
2023-01-17T01:21:20.687Z,2.47
2023-01-17T01:24:05.637Z,3.05
2023-01-17T01:26:50.646Z,2.70
2023-01-17T01:29:35.887Z,2.25
2023-01-17T01:32:20.980Z,2.88
2023-01-17T01:34:47.406Z,2.40
2023-01-17T01:37:13.825Z,2.70
2023-01-17T01:39:40.226Z,2.70
2023-01-17T01:42:14.530Z,3.00
2023-01-17T01:44:50.180Z,2.35
2023-01-17T01:47:33.382Z,2.80
2023-01-17T01:50:03.317Z,2.78
2023-01-17T01:52:33.036Z,2.90
2023-01-17T01:55:04.173Z,2.97
2023-01-17T02:00:24.834Z,2.20
2023-01-17T02:02:53.756Z,2.10
2023-01-17T02:05:23.607Z,2.90
2023-01-17T02:07:54.883Z,2.88
2023-01-17T02:10:21.514Z,2.30
2023-01-17T02:12:48.804Z,2.90
2023-01-17T02:15:15.365Z,2.28
2023-01-17T02:17:59.583Z,2.47
2023-01-17T02:20:46.275Z,2.85
2023-01-17T02:23:23.898Z,2.80
2023-01-17T02:26:26.014Z,2.13
2023-01-17T02:29:31.866Z,2.60
2023-01-17T02:32:04.960Z,2.17
2023-01-17T02:34:46.609Z,2.55
2023-01-17T02:37:19.343Z,2.53
2023-01-17T02:40:00.286Z,2.30
2023-01-17T02:42:34.120Z,2.10
2023-01-17T02:45:02.103Z,2.40
2023-01-17T02:47:30.607Z,2.00
2023-01-17T02:50:12.462Z,2.33
2023-01-17T02:53:10.834Z,1.98
2023-01-17T03:00:17.556Z,2.20
2023-01-17T03:03:06.785Z,1.85
2023-01-17T03:05:54.102Z,1.83
2023-01-17T03:08:21.104Z,1.70
2023-01-17T03:10:47.532Z,1.63
2023-01-17T03:13:14.377Z,1.50
2023-01-17T03:15:40.982Z,1.67
2023-01-17T03:18:13.408Z,2.20
2023-01-17T03:20:39.975Z,1.60
2023-01-17T03:23:06.366Z,1.88
2023-01-17T03:25:32.744Z,1.52
2023-01-17T03:27:59.248Z,1.85
2023-01-17T03:30:25.955Z,1.30
2023-01-17T03:32:52.359Z,1.60
2023-01-17T03:35:18.761Z,1.58
2023-01-17T03:37:45.151Z,1.40
2023-01-17T03:40:11.780Z,1.50
2023-01-17T03:42:38.170Z,1.38
2023-01-17T03:45:04.922Z,1.38
2023-01-17T03:47:31.306Z,1.30
2023-01-17T03:49:57.698Z,1.42
2023-01-17T03:52:24.105Z,1.23
2023-01-17T03:54:50.509Z,1.20
2023-01-17T03:57:16.905Z,1.30
2023-01-17T03:59:43.298Z,1.20
2023-01-17T04:02:09.819Z,1.35
2023-01-17T04:04:36.280Z,1.02
2023-01-17T04:07:02.655Z,1.35
2023-01-17T04:09:33.888Z,1.15
2023-01-17T04:14:27.304Z,1.10
2023-01-17T04:16:54.100Z,1.55
2023-01-17T04:19:20.871Z,1.33
2023-01-17T04:21:47.256Z,0.98
2023-01-17T04:24:13.638Z,1.10
2023-01-17T04:26:40.040Z,1.00
2023-01-17T04:29:06.439Z,1.20
2023-01-17T04:31:32.886Z,1.35
2023-01-17T04:33:59.302Z,1.02
2023-01-17T04:36:25.675Z,1.00
2023-01-17T04:38:52.066Z,1.00
2023-01-17T04:41:18.457Z,1.05
2023-01-17T04:43:44.865Z,0.90
2023-01-17T04:46:11.345Z,0.80
2023-01-17T04:48:37.928Z,1.35
2023-01-17T04:51:05.276Z,0.80
2023-01-17T04:53:32.203Z,0.88
2023-01-17T04:55:58.669Z,1.08
2023-01-17T04:58:25.107Z,1.00
2023-01-17T05:00:51.773Z,0.90
2023-01-17T05:03:19.609Z,0.90
2023-01-17T05:05:46.589Z,1.00
2023-01-17T05:08:13.048Z,1.10
2023-01-17T05:10:39.507Z,1.17
2023-01-17T05:13:05.901Z,1.63
2023-01-17T05:15:32.609Z,1.30
2023-01-17T05:17:58.997Z,1.15
2023-01-17T05:20:26.604Z,1.05
2023-01-17T05:22:56.890Z,1.05
2023-01-17T05:25:25.343Z,1.20
2023-01-17T05:27:52.387Z,1.20
2023-01-17T05:30:19.301Z,1.23
2023-01-17T05:32:50.466Z,1.05
2023-01-17T05:35:22.124Z,1.20
2023-01-17T05:37:49.979Z,0.98
2023-01-17T05:40:18.545Z,1.20
2023-01-17T05:42:49.203Z,1.27
2023-01-17T05:45:17.069Z,1.30
2023-01-17T05:47:44.654Z,1.20
2023-01-17T05:50:18.514Z,1.30
2023-01-17T05:52:53.072Z,1.40
2023-01-17T05:55:20.304Z,1.27
2023-01-17T05:57:47.067Z,1.33
2023-01-17T06:00:14.515Z,1.20
2023-01-17T06:02:41.423Z,1.25
2023-01-17T06:05:08.089Z,1.30
2023-01-17T06:07:34.578Z,1.15
2023-01-17T06:10:01.203Z,1.30
2023-01-17T06:12:27.652Z,1.48
2023-01-17T06:14:54.050Z,1.30
2023-01-17T06:17:20.497Z,1.30
2023-01-17T06:19:46.889Z,1.35
2023-01-17T06:22:13.302Z,1.45
2023-01-17T06:24:39.679Z,1.38
2023-01-17T06:27:09.424Z,1.45
2023-01-17T06:29:35.863Z,1.75
2023-01-17T06:32:03.649Z,1.42
2023-01-17T06:34:30.056Z,1.60
2023-01-17T06:36:56.814Z,1.42
2023-01-17T06:39:23.199Z,1.60
2023-01-17T06:41:49.576Z,1.58
2023-01-17T06:44:15.968Z,1.45
2023-01-17T06:46:43.301Z,1.50
2023-01-17T06:49:09.766Z,1.70
2023-01-17T06:51:36.178Z,1.60
2023-01-17T06:54:02.590Z,1.75
2023-01-17T06:56:31.732Z,1.50
2023-01-17T06:58:58.155Z,1.83
2023-01-17T07:01:24.985Z,1.67
2023-01-17T07:03:52.441Z,1.40
2023-01-17T07:06:18.952Z,2.08
2023-01-17T07:08:45.573Z,1.83
2023-01-17T07:11:11.967Z,1.50
2023-01-17T07:13:38.881Z,1.65
2023-01-17T07:16:06.408Z,2.08
2023-01-17T07:18:33.893Z,1.70
2023-01-17T07:21:00.595Z,1.58
2023-01-17T07:23:27.187Z,1.40
2023-01-17T07:25:59.392Z,1.60
2023-01-17T07:28:27.284Z,1.52
2023-01-17T07:30:54.387Z,1.50
2023-01-17T07:33:21.095Z,1.65
2023-01-17T07:35:47.518Z,1.95
2023-01-17T07:38:16.386Z,1.77
2023-01-17T07:40:42.874Z,1.67
2023-01-17T07:43:15.340Z,1.90
2023-01-17T07:45:46.268Z,1.77
2023-01-17T07:48:12.903Z,1.95
2023-01-17T07:50:39.656Z,1.77
2023-01-17T07:53:06.037Z,1.75
2023-01-17T07:55:32.975Z,2.20
2023-01-17T07:58:00.762Z,2.25
2023-01-17T08:00:28.964Z,1.70
2023-01-17T08:02:57.261Z,1.98
2023-01-17T08:05:23.988Z,1.85
2023-01-17T08:07:50.418Z,1.80
2023-01-17T08:10:18.037Z,1.88
2023-01-17T08:12:48.579Z,1.90
2023-01-17T08:15:16.488Z,1.83
2023-01-17T08:17:49.903Z,1.70
2023-01-17T08:20:16.620Z,1.70
2023-01-17T08:22:43.010Z,1.75
2023-01-17T08:25:09.804Z,1.90
2023-01-17T08:27:36.410Z,1.60
2023-01-17T08:30:03.594Z,1.75
2023-01-17T08:32:29.982Z,2.10
2023-01-17T08:34:57.143Z,1.50
2023-01-17T08:37:23.712Z,1.40
2023-01-17T08:39:50.264Z,1.50
2023-01-17T08:42:16.701Z,1.30
2023-01-17T08:44:43.614Z,1.80
2023-01-17T08:47:10.439Z,1.30
2023-01-17T08:49:36.838Z,1.75
2023-01-17T08:52:03.550Z,1.30
2023-01-17T08:54:29.941Z,1.50
2023-01-17T08:56:56.362Z,1.40
2023-01-17T08:59:22.791Z,1.23
2023-01-17T09:01:49.299Z,1.30
2023-01-17T09:04:15.970Z,1.25
2023-01-17T09:06:45.288Z,1.13
2023-01-17T09:09:11.685Z,0.90
2023-01-17T09:11:38.257Z,1.30
2023-01-17T09:14:04.803Z,1.10
2023-01-17T09:16:31.456Z,1.20
2023-01-17T09:18:59.317Z,0.90
2023-01-17T09:21:26.761Z,1.08
2023-01-17T09:23:53.427Z,1.13
2023-01-17T09:26:25.428Z,1.15
2023-01-17T09:28:52.347Z,1.00
2023-01-17T09:31:22.992Z,1.15
2023-01-17T09:33:51.247Z,1.13
2023-01-17T09:36:18.018Z,1.17
2023-01-17T09:38:44.624Z,0.98
2023-01-17T09:41:22.031Z,1.00
2023-01-17T09:43:55.156Z,1.10
2023-01-17T09:46:26.564Z,1.27
2023-01-17T09:49:03.536Z,1.05
2023-01-17T09:51:30.114Z,0.90
2023-01-17T09:53:56.536Z,1.00
2023-01-17T09:56:31.089Z,1.10
2023-01-17T09:59:20.795Z,0.90
2023-01-17T10:01:52.382Z,1.20
2023-01-17T10:04:37.892Z,0.98
2023-01-17T10:07:17.891Z,0.93
2023-01-17T10:10:04.835Z,1.15
2023-01-17T10:12:53.598Z,1.00
2023-01-17T10:16:01.580Z,1.08
2023-01-17T10:19:05.705Z,1.33
2023-01-17T10:21:55.622Z,1.00
2023-01-17T10:24:31.152Z,1.63
2023-01-17T10:27:01.457Z,1.00
2023-01-17T10:29:34.320Z,0.97
2023-01-17T10:32:02.697Z,1.10
2023-01-17T10:34:40.126Z,1.30
2023-01-17T10:37:34.788Z,1.45
2023-01-17T10:40:15.698Z,1.10
2023-01-17T10:42:55.852Z,2.10
2023-01-17T10:45:28.935Z,1.23
2023-01-17T10:48:09.121Z,1.00
2023-01-17T10:50:46.832Z,1.42
2023-01-17T10:53:34.088Z,1.15
2023-01-17T10:56:01.980Z,0.77
2023-01-17T10:58:28.407Z,1.00
2023-01-17T11:01:19.408Z,1.30
2023-01-17T11:03:50.980Z,1.55
2023-01-17T11:06:20.918Z,0.95
2023-01-17T11:08:58.564Z,1.10
2023-01-17T11:11:31.957Z,1.10
2023-01-17T11:14:18.613Z,0.90
2023-01-17T11:16:45.163Z,1.20
2023-01-17T11:19:26.671Z,1.10
2023-01-17T11:22:02.425Z,1.38
2023-01-17T11:24:36.442Z,1.30
2023-01-17T11:27:05.672Z,1.10
2023-01-17T11:29:35.994Z,1.05
2023-01-17T11:35:25.595Z,1.60
2023-01-17T11:37:56.505Z,1.50
2023-01-17T11:40:28.516Z,1.20
2023-01-17T11:43:11.372Z,1.35
2023-01-17T11:45:39.582Z,1.40
2023-01-17T11:48:09.052Z,1.50
2023-01-17T11:50:39.791Z,1.58
2023-01-17T11:53:16.258Z,1.63
2023-01-17T11:56:05.752Z,1.77
2023-01-17T11:58:38.369Z,1.80
2023-01-17T12:01:32.762Z,1.40
2023-01-17T12:04:24.104Z,1.23
2023-01-17T12:07:20.371Z,1.65
2023-01-17T12:10:03.582Z,1.35
2023-01-17T12:13:14.514Z,1.20
2023-01-17T12:16:01.687Z,1.10
2023-01-17T12:19:16.596Z,1.27
2023-01-17T12:22:12.624Z,1.45
2023-01-17T12:25:06.927Z,1.30
2023-01-17T12:27:47.678Z,1.10
2023-01-17T12:30:42.927Z,1.48
2023-01-17T12:33:19.926Z,1.40
2023-01-17T12:35:56.991Z,1.63
2023-01-17T12:38:32.978Z,1.75
2023-01-17T12:41:23.351Z,1.30
2023-01-17T12:43:54.040Z,1.60
2023-01-17T12:46:27.165Z,1.42
2023-01-17T12:48:58.169Z,1.92
2023-01-17T12:51:33.137Z,1.42
2023-01-17T12:54:08.633Z,1.40
2023-01-17T12:56:48.573Z,2.00
2023-01-17T12:59:22.209Z,1.40
2023-01-17T13:01:58.956Z,1.40
2023-01-17T13:04:32.963Z,1.45
2023-01-17T13:06:59.461Z,2.17
2023-01-17T13:09:33.637Z,1.30
2023-01-17T13:12:18.655Z,1.30
2023-01-17T13:14:48.643Z,1.98
2023-01-17T13:17:38.816Z,1.23
2023-01-17T13:20:33.279Z,1.80
2023-01-17T13:23:53.953Z,1.45
2023-01-17T13:26:50.953Z,1.30
2023-01-17T13:29:29.428Z,1.65
2023-01-17T13:32:23.122Z,1.70
2023-01-17T13:35:02.022Z,1.30
2023-01-17T13:37:47.791Z,1.90
2023-01-17T13:40:29.553Z,1.58
2023-01-17T13:43:05.187Z,1.73
2023-01-17T13:45:36.618Z,1.55
2023-01-17T13:48:12.218Z,1.80
2023-01-17T13:50:38.533Z,1.40
2023-01-17T13:53:35.669Z,1.70
2023-01-17T13:56:18.821Z,1.65
2023-01-17T13:58:47.030Z,1.98
2023-01-17T14:01:13.559Z,1.77
2023-01-17T14:03:48.982Z,1.60
2023-01-17T14:06:44.518Z,1.52
2023-01-17T14:09:22.907Z,1.65
2023-01-17T14:11:52.622Z,1.60
2023-01-17T14:14:43.680Z,1.30
2023-01-17T14:17:16.296Z,1.77
2023-01-17T14:19:48.090Z,1.27
2023-01-17T14:22:24.401Z,1.27
2023-01-17T14:25:10.875Z,1.48
2023-01-17T14:27:49.835Z,1.60
2023-01-17T14:30:24.877Z,1.88
2023-01-17T14:33:03.148Z,1.58
2023-01-17T14:35:31.597Z,2.30
2023-01-17T14:37:59.743Z,1.70
2023-01-17T14:40:30.500Z,1.58
2023-01-17T14:43:02.584Z,2.65
2023-01-17T14:45:31.791Z,1.30
2023-01-17T14:48:00.842Z,1.60
2023-01-17T14:50:39.238Z,1.20
2023-01-17T14:53:11.479Z,1.80
2023-01-17T14:55:52.421Z,1.48
2023-01-17T14:58:21.823Z,1.90
2023-01-17T15:00:51.446Z,1.70
2023-01-17T15:03:18.012Z,2.00
2023-01-17T15:05:51.254Z,2.13
2023-01-17T15:08:22.069Z,1.50
2023-01-17T15:10:56.173Z,1.73
2023-01-17T15:13:44.376Z,1.58
2023-01-17T15:16:26.171Z,2.10
2023-01-17T15:21:22.551Z,1.85
2023-01-17T15:23:55.313Z,1.85
2023-01-17T15:26:25.078Z,1.77
2023-01-17T15:28:53.296Z,2.40
2023-01-17T15:31:37.700Z,2.25
2023-01-17T15:34:08.069Z,2.00
2023-01-17T15:36:35.201Z,2.45
2023-01-17T15:39:19.089Z,1.98
2023-01-17T15:41:47.201Z,2.20
2023-01-17T15:44:48.940Z,2.67
2023-01-17T15:47:38.455Z,2.50
2023-01-17T15:50:20.315Z,3.25
2023-01-17T15:52:51.325Z,2.13
2023-01-17T15:55:29.381Z,2.30
2023-01-17T15:57:55.789Z,1.90
2023-01-17T16:00:32.314Z,2.50
2023-01-17T16:02:59.401Z,2.17
2023-01-17T16:05:27.556Z,2.33
2023-01-17T16:07:56.765Z,2.10
2023-01-17T16:10:29.024Z,1.95
2023-01-17T16:12:56.168Z,1.70
2023-01-17T16:15:23.592Z,2.05
2023-01-17T16:17:53.489Z,2.20
2023-01-17T16:20:24.860Z,1.87
2023-01-17T16:25:20.856Z,2.35
2023-01-17T16:27:48.558Z,2.38
2023-01-17T16:30:18.183Z,2.70
2023-01-17T16:32:48.897Z,2.00
2023-01-17T16:35:23.656Z,2.08
2023-01-17T16:37:55.161Z,1.80
2023-01-17T16:40:24.231Z,2.92
2023-01-17T16:42:50.797Z,2.20
2023-01-17T16:45:18.654Z,2.40
2023-01-17T16:47:46.761Z,2.17
2023-01-17T16:50:15.664Z,2.33
2023-01-17T16:52:42.235Z,2.35
2023-01-17T16:55:14.064Z,2.60
2023-01-17T16:57:40.451Z,2.50
2023-01-17T17:00:08.203Z,2.30
2023-01-17T17:02:34.899Z,2.47
2023-01-17T17:05:01.334Z,3.00
2023-01-17T17:07:27.728Z,2.63
2023-01-17T17:09:54.174Z,2.60
2023-01-17T17:12:20.554Z,2.40
2023-01-17T17:14:46.969Z,2.80
2023-01-17T17:17:13.396Z,3.17
2023-01-17T17:19:39.813Z,2.70
2023-01-17T17:22:06.577Z,3.05
2023-01-17T17:24:33.512Z,3.53
2023-01-17T17:27:00.104Z,2.75
2023-01-17T17:29:26.504Z,2.50
2023-01-17T17:31:53.760Z,2.47
2023-01-17T17:34:20.763Z,2.63
2023-01-17T17:36:47.169Z,3.55
2023-01-17T17:39:17.373Z,3.97
2023-01-17T17:41:45.643Z,3.53
2023-01-17T17:44:12.425Z,4.32
2023-01-17T17:46:38.924Z,5.50
2023-01-17T17:49:06.653Z,5.35
2023-01-17T17:51:35.633Z,4.97
2023-01-17T17:54:05.261Z,4.93
2023-01-17T17:56:32.792Z,5.72
2023-01-17T17:59:00.961Z,5.32
2023-01-17T18:01:27.975Z,5.53
2023-01-17T18:03:57.168Z,5.47
2023-01-17T18:06:24.260Z,6.45
2023-01-17T18:08:52.121Z,5.70
2023-01-17T18:11:21.774Z,5.47
2023-01-17T18:13:50.498Z,7.03
2023-01-17T18:16:23.124Z,5.85
2023-01-17T18:18:52.536Z,7.63
2023-01-17T18:21:26.968Z,9.02
2023-01-17T18:23:58.775Z,7.38
2023-01-17T18:26:37.869Z,5.30
2023-01-17T18:29:06.329Z,4.85
2023-01-17T18:31:33.822Z,5.13
2023-01-17T18:34:05.140Z,5.40
2023-01-17T18:36:31.546Z,5.25
2023-01-17T18:38:57.954Z,5.90
2023-01-17T18:41:30.776Z,6.90
2023-01-17T18:43:57.881Z,10.05
2023-01-17T18:46:25.979Z,10.55
2023-01-17T18:48:55.458Z,12.00
2023-01-17T18:51:21.999Z,9.02
2023-01-17T18:53:48.457Z,9.35
2023-01-17T18:56:18.241Z,10.80
2023-01-17T18:58:46.645Z,10.65
2023-01-17T19:01:14.375Z,10.45
2023-01-17T19:03:43.525Z,10.55
2023-01-17T19:06:12.701Z,9.23
2023-01-17T19:08:40.060Z,10.25
2023-01-17T19:11:06.888Z,10.48
2023-01-17T19:13:36.099Z,11.05
2023-01-17T19:16:08.205Z,12.15
2023-01-17T19:18:35.005Z,11.00
2023-01-17T19:21:12.747Z,10.20
2023-01-17T19:23:39.668Z,11.00
2023-01-17T19:26:08.341Z,12.35
2023-01-17T19:28:42.232Z,12.85
2023-01-17T19:31:16.512Z,12.23
2023-01-17T19:33:45.125Z,13.25
2023-01-17T19:36:16.981Z,12.30
2023-01-17T19:38:52.298Z,14.40
2023-01-17T19:41:27.216Z,15.88
2023-01-17T19:43:58.215Z,13.88
2023-01-17T19:46:27.213Z,11.45
2023-01-17T19:48:55.323Z,10.48
2023-01-17T19:51:22.195Z,11.10
2023-01-17T19:53:48.609Z,10.02
2023-01-17T19:56:20.471Z,10.75
2023-01-17T19:58:47.706Z,11.10
2023-01-17T20:01:26.560Z,11.20
2023-01-17T20:03:53.039Z,10.75
2023-01-17T20:06:22.569Z,11.38
2023-01-17T20:08:49.268Z,10.10
2023-01-17T20:11:19.547Z,11.45
2023-01-17T20:13:47.217Z,11.27
2023-01-17T20:16:15.423Z,11.30
2023-01-17T20:18:42.636Z,9.35
2023-01-17T20:21:21.109Z,8.65
2023-01-17T20:23:48.798Z,8.90
2023-01-17T20:26:17.837Z,6.75
2023-01-17T20:28:48.826Z,5.38
2023-01-17T20:31:17.742Z,5.68
2023-01-17T20:33:45.547Z,6.53
2023-01-17T20:36:14.820Z,5.40
2023-01-17T20:38:45.078Z,6.00
2023-01-17T20:41:23.299Z,6.73
2023-01-17T20:43:52.789Z,6.38
2023-01-17T20:46:21.597Z,5.97
2023-01-17T20:48:50.675Z,8.63
2023-01-17T20:51:18.388Z,11.50
2023-01-17T20:53:46.035Z,10.75
2023-01-17T20:56:14.949Z,8.52
2023-01-17T20:58:42.309Z,7.20
2023-01-17T21:01:10.883Z,7.97
2023-01-17T21:03:38.523Z,7.97
2023-01-17T21:06:06.172Z,9.60
2023-01-17T21:08:34.918Z,9.40
2023-01-17T21:11:01.407Z,10.35
2023-01-17T21:13:27.944Z,10.55
2023-01-17T21:15:55.115Z,14.75
2023-01-17T21:18:23.968Z,17.98
2023-01-17T21:20:50.579Z,17.67
2023-01-17T21:23:17.963Z,15.98
2023-01-17T21:25:55.670Z,15.85
2023-01-17T21:28:27.309Z,15.43
2023-01-17T21:30:54.609Z,12.63
2023-01-17T21:33:22.703Z,12.93
2023-01-17T21:35:49.122Z,13.00
2023-01-17T21:38:16.185Z,12.20
2023-01-17T21:40:43.644Z,13.07
2023-01-17T21:43:11.166Z,11.85
2023-01-17T21:45:38.643Z,10.38
2023-01-17T21:48:06.666Z,11.43
2023-01-17T21:50:34.092Z,13.93
2023-01-17T21:53:00.839Z,14.73
2023-01-17T21:55:45.618Z,14.13
2023-01-17T21:58:32.787Z,14.15
2023-01-17T22:01:08.905Z,14.85
2023-01-17T22:03:35.865Z,15.85
2023-01-17T22:06:02.493Z,15.43
2023-01-17T22:08:37.774Z,14.38
2023-01-17T22:11:10.727Z,13.30
2023-01-17T22:13:38.222Z,13.02
2023-01-17T22:16:07.239Z,12.80
2023-01-17T22:18:36.998Z,12.52
2023-01-17T22:21:06.448Z,12.95
2023-01-17T22:23:33.665Z,10.77
2023-01-17T22:26:05.413Z,10.73
2023-01-17T22:28:32.930Z,11.75
2023-01-17T22:31:21.259Z,11.38
2023-01-17T22:33:53.097Z,11.70
2023-01-17T22:36:20.175Z,10.93
2023-01-17T22:38:47.231Z,10.93
2023-01-17T22:41:16.497Z,10.45
2023-01-17T22:43:45.284Z,11.40
2023-01-17T22:46:14.037Z,10.50
2023-01-17T22:48:40.475Z,10.88
2023-01-17T22:51:09.694Z,10.80
2023-01-17T22:53:44.158Z,10.80
2023-01-17T22:56:13.582Z,10.52
2023-01-17T22:58:44.478Z,9.27
2023-01-17T23:01:31.260Z,8.50
2023-01-17T23:03:59.421Z,8.75
2023-01-17T23:06:28.669Z,9.15
2023-01-17T23:08:58.227Z,8.90
2023-01-17T23:11:46.147Z,7.85
2023-01-17T23:14:23.570Z,7.47
2023-01-17T23:17:17.288Z,7.20
2023-01-17T23:19:49.371Z,6.30
2023-01-17T23:22:19.309Z,8.48
2023-01-17T23:24:54.838Z,6.90
2023-01-17T23:27:45.411Z,7.18
2023-01-17T23:30:14.773Z,6.18
2023-01-17T23:32:47.171Z,5.75
2023-01-17T23:35:14.568Z,6.85
2023-01-17T23:37:59.348Z,6.43
2023-01-17T23:40:25.802Z,6.30
2023-01-17T23:43:11.086Z,5.93
2023-01-17T23:45:38.935Z,5.68
2023-01-17T23:48:09.139Z,5.78
2023-01-17T23:50:37.202Z,6.30
2023-01-17T23:53:09.264Z,6.25
2023-01-17T23:55:40.781Z,5.68
2023-01-17T23:58:09.656Z,6.50
